createdAt,value
2023-04-07T00:01:09.457Z,9.32
2023-04-07T00:03:38.141Z,9.20
2023-04-07T00:06:05.024Z,8.75
2023-04-07T00:08:31.762Z,8.80
2023-04-07T00:10:58.545Z,9.13
2023-04-07T00:13:25.240Z,9.05
2023-04-07T00:15:52.022Z,8.85
2023-04-07T00:18:18.926Z,8.70
2023-04-07T00:20:45.900Z,8.32
2023-04-07T00:23:12.668Z,9.15
2023-04-07T00:25:39.353Z,9.25
2023-04-07T00:28:06.053Z,7.95
2023-04-07T00:30:32.723Z,9.55
2023-04-07T00:32:59.483Z,8.63
2023-04-07T00:35:26.225Z,8.02
2023-04-07T00:37:53.270Z,7.78
2023-04-07T00:40:20.072Z,7.47
2023-04-07T00:42:46.826Z,8.18
2023-04-07T00:45:13.620Z,7.68
2023-04-07T00:47:40.635Z,7.78
2023-04-07T00:50:07.954Z,7.65
2023-04-07T00:52:34.667Z,7.07
2023-04-07T00:55:01.413Z,7.03
2023-04-07T00:57:28.699Z,7.70
2023-04-07T00:59:56.207Z,6.88
2023-04-07T01:02:28.790Z,6.53
2023-04-07T01:05:25.913Z,6.90
2023-04-07T01:08:08.537Z,6.57
2023-04-07T01:10:41.579Z,6.13
2023-04-07T01:13:29.078Z,6.40
2023-04-07T01:15:58.023Z,5.65
2023-04-07T01:18:35.747Z,5.97
2023-04-07T01:21:16.532Z,6.00
2023-04-07T01:24:10.393Z,5.15
2023-04-07T01:26:38.067Z,5.13
2023-04-07T01:29:20.828Z,5.47
2023-04-07T01:31:49.159Z,5.20
2023-04-07T01:34:17.483Z,5.68
2023-04-07T01:36:45.557Z,5.30
2023-04-07T01:39:12.424Z,5.55
2023-04-07T01:41:39.816Z,5.47
2023-04-07T01:44:08.040Z,5.57
2023-04-07T01:46:35.917Z,5.68
2023-04-07T01:49:03.447Z,5.53
2023-04-07T01:51:31.055Z,5.15
2023-04-07T01:53:58.829Z,5.07
2023-04-07T01:56:25.616Z,5.43
2023-04-07T01:58:52.349Z,5.25
2023-04-07T02:01:19.174Z,5.07
2023-04-07T02:04:04.214Z,4.45
2023-04-07T02:06:35.083Z,4.72
2023-04-07T02:09:07.827Z,4.72
2023-04-07T02:11:36.111Z,4.43
2023-04-07T02:14:04.642Z,4.80
2023-04-07T02:16:31.747Z,4.80
2023-04-07T02:18:59.759Z,5.20
2023-04-07T02:21:28.273Z,4.93
2023-04-07T02:23:55.515Z,4.50
2023-04-07T02:26:22.435Z,4.45
2023-04-07T02:28:49.123Z,4.82
2023-04-07T02:31:16.232Z,4.35
2023-04-07T02:33:42.953Z,4.60
2023-04-07T02:36:09.670Z,4.78
2023-04-07T02:38:36.498Z,4.45
2023-04-07T02:41:03.174Z,4.50
2023-04-07T02:43:29.872Z,4.70
2023-04-07T02:45:56.909Z,4.70
2023-04-07T02:48:23.694Z,5.10
2023-04-07T02:50:50.559Z,5.15
2023-04-07T02:53:17.294Z,4.78
2023-04-07T02:55:43.979Z,4.22
2023-04-07T02:58:10.650Z,4.40
2023-04-07T03:00:37.368Z,4.55
2023-04-07T03:03:04.842Z,4.53
2023-04-07T03:05:31.913Z,4.60
2023-04-07T03:07:58.930Z,4.50
2023-04-07T03:10:25.740Z,4.63
2023-04-07T03:12:52.439Z,4.78
2023-04-07T03:15:19.156Z,4.78
2023-04-07T03:17:45.990Z,4.97
2023-04-07T03:20:13.174Z,4.20
2023-04-07T03:22:39.892Z,4.57
2023-04-07T03:25:07.014Z,4.40
2023-04-07T03:27:33.678Z,4.68
2023-04-07T03:30:00.510Z,4.60
2023-04-07T03:32:27.190Z,4.15
2023-04-07T03:34:53.968Z,3.72
2023-04-07T03:37:20.912Z,4.47
2023-04-07T03:39:48.677Z,4.25
2023-04-07T03:42:16.186Z,4.13
2023-04-07T03:44:42.954Z,3.97
2023-04-07T03:47:09.609Z,3.58
2023-04-07T03:49:38.327Z,3.80
2023-04-07T03:52:05.421Z,3.97
2023-04-07T03:54:32.182Z,4.07
2023-04-07T03:56:58.872Z,4.28
2023-04-07T03:59:25.559Z,4.10
2023-04-07T04:01:52.573Z,4.10
2023-04-07T04:04:19.714Z,4.10
2023-04-07T04:06:46.462Z,4.10
2023-04-07T04:09:14.411Z,3.90
2023-04-07T04:11:41.474Z,4.22
2023-04-07T04:14:08.282Z,3.90
2023-04-07T04:16:35.669Z,4.47
2023-04-07T04:19:02.465Z,4.35
2023-04-07T04:21:29.218Z,4.80
2023-04-07T04:23:55.915Z,4.70
2023-04-07T04:26:25.955Z,4.90
2023-04-07T04:28:55.643Z,4.30
2023-04-07T04:31:22.469Z,4.22
2023-04-07T04:33:49.185Z,4.10
2023-04-07T04:36:16.409Z,4.60
2023-04-07T04:38:43.205Z,4.63
2023-04-07T04:41:09.908Z,4.97
2023-04-07T04:43:36.760Z,5.40
2023-04-07T04:46:03.483Z,4.18
2023-04-07T04:48:30.189Z,4.68
2023-04-07T04:50:56.910Z,4.78
2023-04-07T04:53:23.988Z,4.22
2023-04-07T04:55:53.180Z,4.18
2023-04-07T04:58:21.121Z,3.60
2023-04-07T05:00:47.816Z,4.15
2023-04-07T05:03:14.862Z,4.20
2023-04-07T05:05:42.007Z,4.20
2023-04-07T05:08:10.993Z,10.15
2023-04-07T05:10:41.072Z,8.82
2023-04-07T05:13:07.810Z,4.07
2023-04-07T05:15:34.552Z,4.43
2023-04-07T05:18:01.491Z,4.22
2023-04-07T05:20:28.228Z,4.32
2023-04-07T05:22:54.917Z,4.50
2023-04-07T05:25:21.681Z,3.83
2023-04-07T05:27:48.425Z,5.05
2023-04-07T05:30:15.941Z,4.38
2023-04-07T05:32:42.735Z,4.10
2023-04-07T05:35:09.911Z,3.72
2023-04-07T05:37:36.650Z,4.18
2023-04-07T05:40:03.736Z,4.15
2023-04-07T05:42:30.697Z,4.00
2023-04-07T05:44:57.423Z,4.47
2023-04-07T05:47:24.227Z,4.10
2023-04-07T05:49:51.101Z,3.85
2023-04-07T05:52:17.892Z,3.80
2023-04-07T05:54:45.006Z,4.20
2023-04-07T05:57:11.793Z,3.80
2023-04-07T05:59:38.494Z,4.40
2023-04-07T06:02:05.499Z,3.80
2023-04-07T06:04:34.016Z,3.58
2023-04-07T06:07:04.071Z,3.85
2023-04-07T06:09:30.949Z,3.72
2023-04-07T06:11:58.186Z,4.05
2023-04-07T06:14:25.846Z,4.03
2023-04-07T06:16:52.580Z,3.70
2023-04-07T06:19:19.302Z,3.92
2023-04-07T06:21:45.976Z,3.63
2023-04-07T06:24:12.671Z,3.70
2023-04-07T06:26:40.390Z,4.15
2023-04-07T06:29:08.206Z,3.65
2023-04-07T06:31:34.978Z,4.50
2023-04-07T06:34:01.764Z,3.95
2023-04-07T06:36:29.097Z,4.18
2023-04-07T06:38:56.151Z,3.80
2023-04-07T06:41:22.925Z,4.10
2023-04-07T06:43:53.453Z,4.00
2023-04-07T06:46:20.441Z,4.07
2023-04-07T06:48:47.529Z,3.97
2023-04-07T06:51:14.204Z,4.03
2023-04-07T06:53:41.979Z,4.03
2023-04-07T06:56:12.176Z,3.90
2023-04-07T06:58:38.971Z,3.92
2023-04-07T07:01:06.461Z,4.15
2023-04-07T07:03:33.574Z,3.88
2023-04-07T07:06:01.050Z,3.58
2023-04-07T07:08:29.336Z,4.10
2023-04-07T07:10:56.297Z,4.10
2023-04-07T07:13:24.582Z,3.72
2023-04-07T07:15:51.648Z,3.80
2023-04-07T07:18:19.239Z,4.00
2023-04-07T07:20:46.138Z,4.10
2023-04-07T07:23:13.059Z,3.60
2023-04-07T07:25:39.717Z,4.00
2023-04-07T07:28:06.424Z,4.18
2023-04-07T07:30:33.095Z,3.60
2023-04-07T07:32:59.922Z,3.22
2023-04-07T07:35:26.830Z,4.30
2023-04-07T07:37:53.795Z,3.65
2023-04-07T07:40:20.883Z,4.35
2023-04-07T07:42:47.625Z,4.30
2023-04-07T07:45:14.476Z,4.63
2023-04-07T07:47:41.874Z,3.83
2023-04-07T07:50:08.996Z,3.90
2023-04-07T07:52:35.730Z,4.28
2023-04-07T07:55:02.704Z,4.15
2023-04-07T07:57:31.449Z,4.47
2023-04-07T07:59:58.194Z,4.25
2023-04-07T08:02:30.756Z,4.03
2023-04-07T08:04:58.415Z,3.63
2023-04-07T08:07:25.547Z,4.10
2023-04-07T08:09:52.437Z,3.22
2023-04-07T08:12:19.253Z,3.67
2023-04-07T08:14:46.169Z,3.15
2023-04-07T08:17:12.982Z,3.10
2023-04-07T08:19:39.735Z,2.90
2023-04-07T08:22:06.577Z,3.45
2023-04-07T08:24:33.269Z,3.40
2023-04-07T08:27:01.295Z,3.55
2023-04-07T08:29:28.761Z,3.00
2023-04-07T08:31:56.248Z,2.80
2023-04-07T08:34:23.043Z,3.42
2023-04-07T08:36:49.748Z,4.00
2023-04-07T08:39:16.428Z,3.40
2023-04-07T08:41:44.680Z,3.20
2023-04-07T08:44:11.597Z,3.55
2023-04-07T08:46:39.788Z,3.15
2023-04-07T08:49:11.169Z,3.17
2023-04-07T08:51:38.904Z,3.00
2023-04-07T08:54:09.675Z,3.10
2023-04-07T08:56:40.738Z,3.75
2023-04-07T08:59:08.940Z,2.80
2023-04-07T09:01:36.815Z,2.22
2023-04-07T09:04:04.329Z,2.95
2023-04-07T09:06:32.061Z,2.92
2023-04-07T09:08:59.472Z,2.70
2023-04-07T09:11:27.724Z,3.05
2023-04-07T09:13:56.047Z,2.80
2023-04-07T09:16:25.957Z,2.60
2023-04-07T09:18:53.606Z,2.80
2023-04-07T09:21:20.346Z,2.58
2023-04-07T09:23:47.970Z,3.00
2023-04-07T09:26:24.705Z,3.20
2023-04-07T09:28:54.028Z,3.70
2023-04-07T09:31:21.651Z,3.40
2023-04-07T09:33:49.951Z,2.60
2023-04-07T09:36:16.884Z,2.92
2023-04-07T09:38:45.020Z,3.33
2023-04-07T09:41:14.712Z,2.58
2023-04-07T09:43:45.386Z,2.42
2023-04-07T09:46:15.863Z,2.10
2023-04-07T09:48:44.771Z,2.40
2023-04-07T09:51:13.895Z,2.28
2023-04-07T09:53:49.780Z,2.08
2023-04-07T09:56:18.272Z,2.20
2023-04-07T09:58:46.908Z,2.40
2023-04-07T10:01:16.975Z,1.65
2023-04-07T10:03:46.644Z,2.13
2023-04-07T10:06:13.832Z,1.90
2023-04-07T10:08:42.674Z,2.20
2023-04-07T10:11:10.579Z,2.28
2023-04-07T10:13:39.807Z,2.50
2023-04-07T10:16:07.839Z,2.25
2023-04-07T10:18:35.942Z,2.55
2023-04-07T10:21:04.685Z,2.60
2023-04-07T10:23:40.903Z,2.67
2023-04-07T10:26:08.137Z,3.15
2023-04-07T10:28:38.529Z,3.70
2023-04-07T10:31:05.606Z,3.55
2023-04-07T10:33:53.510Z,3.03
2023-04-07T10:36:21.485Z,3.28
2023-04-07T10:39:08.544Z,4.18
2023-04-07T10:41:39.683Z,4.63
2023-04-07T10:44:08.193Z,4.47
2023-04-07T10:46:48.299Z,2.97
2023-04-07T10:49:20.882Z,3.45
2023-04-07T10:52:12.752Z,5.40
2023-04-07T10:54:40.452Z,8.32
2023-04-07T10:57:12.142Z,5.25
2023-04-07T11:00:03.293Z,4.82
2023-04-07T11:02:30.442Z,4.28
2023-04-07T11:04:57.309Z,4.15
2023-04-07T11:07:48.671Z,3.85
2023-04-07T11:10:16.378Z,3.85
2023-04-07T11:12:43.847Z,3.33
2023-04-07T11:15:22.231Z,3.95
2023-04-07T11:18:11.471Z,4.70
2023-04-07T11:20:44.330Z,3.47
2023-04-07T11:23:13.175Z,4.45
2023-04-07T11:25:43.086Z,3.15
2023-04-07T11:28:12.178Z,3.80
2023-04-07T11:30:39.361Z,3.33
2023-04-07T11:33:06.224Z,3.45
2023-04-07T11:35:33.056Z,3.47
2023-04-07T11:38:01.859Z,4.35
2023-04-07T11:40:36.906Z,3.45
2023-04-07T11:43:19.363Z,2.72
2023-04-07T11:45:46.416Z,2.83
2023-04-07T11:48:32.742Z,2.70
2023-04-07T11:51:00.125Z,2.38
2023-04-07T11:53:28.780Z,2.10
2023-04-07T11:56:10.118Z,2.78
2023-04-07T11:58:37.316Z,2.53
2023-04-07T12:01:08.571Z,2.40
2023-04-07T12:03:36.970Z,2.20
2023-04-07T12:06:04.643Z,1.95
2023-04-07T12:08:39.271Z,1.63
2023-04-07T12:11:06.581Z,1.77
2023-04-07T12:13:33.595Z,2.17
2023-04-07T12:16:00.858Z,2.03
2023-04-07T12:18:28.314Z,2.10
2023-04-07T12:20:55.331Z,1.80
2023-04-07T12:23:22.683Z,2.22
2023-04-07T12:25:49.358Z,1.90
2023-04-07T12:28:16.129Z,3.03
2023-04-07T12:30:43.490Z,2.20
2023-04-07T12:33:10.177Z,2.25
2023-04-07T12:35:38.740Z,1.80
2023-04-07T12:38:06.015Z,2.33
2023-04-07T12:40:32.749Z,1.88
2023-04-07T12:42:59.502Z,3.22
2023-04-07T12:45:26.325Z,2.08
2023-04-07T12:47:53.126Z,1.80
2023-04-07T12:50:19.879Z,1.77
2023-04-07T12:52:47.205Z,1.70
2023-04-07T12:55:14.280Z,1.73
2023-04-07T12:57:41.042Z,2.15
2023-04-07T13:00:08.382Z,2.00
2023-04-07T13:02:36.844Z,2.55
2023-04-07T13:05:04.695Z,2.63
2023-04-07T13:07:31.449Z,2.08
2023-04-07T13:09:58.179Z,2.00
2023-04-07T13:12:25.818Z,2.08
2023-04-07T13:14:59.841Z,2.80
2023-04-07T13:19:54.448Z,2.08
2023-04-07T13:22:22.248Z,2.88
2023-04-07T13:24:51.378Z,2.50
2023-04-07T13:27:18.129Z,2.10
2023-04-07T13:29:44.929Z,2.40
2023-04-07T13:32:15.981Z,2.55
2023-04-07T13:34:42.870Z,2.15
2023-04-07T13:37:09.694Z,2.15
2023-04-07T13:39:36.646Z,2.30
2023-04-07T13:42:04.499Z,2.88
2023-04-07T13:44:31.205Z,2.47
2023-04-07T13:46:58.818Z,3.28
2023-04-07T13:49:25.750Z,2.67
2023-04-07T13:51:52.521Z,2.90
2023-04-07T13:54:19.271Z,3.45
2023-04-07T13:56:47.272Z,3.50
2023-04-07T13:59:13.968Z,4.47
2023-04-07T14:01:40.870Z,3.08
2023-04-07T14:04:07.841Z,4.30
2023-04-07T14:06:36.614Z,2.38
2023-04-07T14:09:03.821Z,3.17
2023-04-07T14:11:30.507Z,3.20
2023-04-07T14:13:57.199Z,3.13
2023-04-07T14:16:24.983Z,3.45
2023-04-07T14:18:51.745Z,3.28
2023-04-07T14:21:18.570Z,3.38
2023-04-07T14:23:45.396Z,3.20
2023-04-07T14:26:12.645Z,3.60
2023-04-07T14:28:39.583Z,3.50
2023-04-07T14:31:06.631Z,3.13
2023-04-07T14:33:33.456Z,3.63
2023-04-07T14:36:00.235Z,3.60
2023-04-07T14:38:27.333Z,2.92
2023-04-07T14:40:54.743Z,3.20
2023-04-07T14:43:21.481Z,3.38
2023-04-07T14:45:48.194Z,3.45
2023-04-07T14:48:14.936Z,2.88
2023-04-07T14:50:41.720Z,3.05
2023-04-07T14:53:08.660Z,2.83
2023-04-07T14:55:36.213Z,3.22
2023-04-07T14:58:03.086Z,3.38
2023-04-07T15:00:29.937Z,3.33
2023-04-07T15:02:56.827Z,3.15
2023-04-07T15:05:23.669Z,3.70
2023-04-07T15:07:52.529Z,2.90
2023-04-07T15:10:19.872Z,3.47
2023-04-07T15:12:47.404Z,3.28
2023-04-07T15:15:14.753Z,4.40
2023-04-07T15:17:44.498Z,3.28
2023-04-07T15:20:12.978Z,2.60
2023-04-07T15:22:40.142Z,2.05
2023-04-07T15:25:07.174Z,2.45
2023-04-07T15:27:33.910Z,1.70
2023-04-07T15:30:00.841Z,2.42
2023-04-07T15:32:27.629Z,2.78
2023-04-07T15:34:54.340Z,2.80
2023-04-07T15:37:21.037Z,2.40
2023-04-07T15:39:48.400Z,2.63
2023-04-07T15:42:15.461Z,2.45
2023-04-07T15:44:42.223Z,2.40
2023-04-07T15:47:09.392Z,3.80
2023-04-07T15:49:38.781Z,3.40
2023-04-07T15:52:06.097Z,2.97
2023-04-07T15:54:33.038Z,3.40
2023-04-07T15:56:59.908Z,5.35
2023-04-07T15:59:29.286Z,4.50
2023-04-07T16:01:56.172Z,4.30
2023-04-07T16:04:23.037Z,4.38
2023-04-07T16:06:49.800Z,4.70
2023-04-07T16:09:16.569Z,3.10
2023-04-07T16:11:43.353Z,3.30
2023-04-07T16:14:10.172Z,3.60
2023-04-07T16:16:37.145Z,3.10
2023-04-07T16:19:03.992Z,2.88
2023-04-07T16:21:31.408Z,3.65
2023-04-07T16:23:58.223Z,5.15
2023-04-07T16:26:24.953Z,5.57
2023-04-07T16:28:51.668Z,6.07
2023-04-07T16:31:18.412Z,5.20
2023-04-07T16:33:45.230Z,6.72
2023-04-07T16:36:11.982Z,7.55
2023-04-07T16:38:38.690Z,6.90
2023-04-07T16:41:07.607Z,5.75
2023-04-07T16:43:34.354Z,5.72
2023-04-07T16:46:01.091Z,4.93
2023-04-07T16:48:28.769Z,4.88
2023-04-07T16:50:55.485Z,4.22
2023-04-07T16:53:22.276Z,5.70
2023-04-07T16:55:48.967Z,5.28
2023-04-07T16:58:19.584Z,3.83
2023-04-07T17:00:46.577Z,3.50
2023-04-07T17:03:15.295Z,3.70
2023-04-07T17:05:44.338Z,4.00
2023-04-07T17:08:11.199Z,4.40
2023-04-07T17:10:37.867Z,3.65
2023-04-07T17:13:04.611Z,3.58
2023-04-07T17:15:31.331Z,3.85
2023-04-07T17:17:58.626Z,3.90
2023-04-07T17:20:25.485Z,4.65
2023-04-07T17:22:52.714Z,5.32
2023-04-07T17:25:19.412Z,4.43
2023-04-07T17:27:48.044Z,4.40
2023-04-07T17:30:14.990Z,4.20
2023-04-07T17:32:42.449Z,3.22
2023-04-07T17:35:09.496Z,2.65
2023-04-07T17:37:36.526Z,2.70
2023-04-07T17:40:03.420Z,2.85
2023-04-07T17:42:30.239Z,2.70
2023-04-07T17:44:57.710Z,2.25
2023-04-07T17:47:25.076Z,2.35
2023-04-07T17:49:51.806Z,2.80
2023-04-07T17:52:18.558Z,3.60
2023-04-07T17:54:45.314Z,3.63
2023-04-07T17:57:14.302Z,3.13
2023-04-07T17:59:41.143Z,3.65
2023-04-07T18:02:11.044Z,5.70
2023-04-07T18:04:38.588Z,6.28
2023-04-07T18:07:05.707Z,6.97
2023-04-07T18:09:33.124Z,6.85
2023-04-07T18:12:01.530Z,6.53
2023-04-07T18:14:28.762Z,7.22
2023-04-07T18:16:56.180Z,8.48
2023-04-07T18:19:23.409Z,6.45
2023-04-07T18:21:52.891Z,8.38
2023-04-07T18:24:20.686Z,7.40
2023-04-07T18:26:47.777Z,7.70
2023-04-07T18:29:14.928Z,6.97
2023-04-07T18:31:45.132Z,6.80
2023-04-07T18:34:12.295Z,6.93
2023-04-07T18:36:41.096Z,7.22
2023-04-07T18:39:07.983Z,8.75
2023-04-07T18:41:34.928Z,9.32
2023-04-07T18:44:01.683Z,8.52
2023-04-07T18:46:28.431Z,8.63
2023-04-07T18:48:55.547Z,8.35
2023-04-07T18:51:22.379Z,8.43
2023-04-07T18:53:49.351Z,7.10
2023-04-07T18:56:16.329Z,7.05
2023-04-07T18:58:46.152Z,7.50
2023-04-07T19:01:13.268Z,8.40
2023-04-07T19:03:41.673Z,7.85
2023-04-07T19:06:08.636Z,6.63
2023-04-07T19:08:36.635Z,8.10
2023-04-07T19:11:03.750Z,6.82
2023-04-07T19:13:30.702Z,7.45
2023-04-07T19:15:57.745Z,7.43
2023-04-07T19:18:25.048Z,12.80
2023-04-07T19:20:51.860Z,15.18
2023-04-07T19:23:18.540Z,8.70
2023-04-07T19:25:46.027Z,8.55
2023-04-07T19:28:13.431Z,8.98
2023-04-07T19:30:40.341Z,9.38
2023-04-07T19:33:07.296Z,10.63
2023-04-07T19:35:34.434Z,9.88
2023-04-07T19:38:02.082Z,11.60
2023-04-07T19:40:31.278Z,9.65
2023-04-07T19:42:58.144Z,11.00
2023-04-07T19:45:24.999Z,11.05
2023-04-07T19:47:52.464Z,13.20
2023-04-07T19:50:19.864Z,12.63
2023-04-07T19:52:47.387Z,12.13
2023-04-07T19:55:14.364Z,13.35
2023-04-07T19:57:41.135Z,12.18
2023-04-07T20:00:09.193Z,13.70
2023-04-07T20:02:36.859Z,13.43
2023-04-07T20:05:04.113Z,13.82
2023-04-07T20:07:31.938Z,13.20
2023-04-07T20:09:58.831Z,13.05
2023-04-07T20:12:25.662Z,14.63
2023-04-07T20:14:52.376Z,12.90
2023-04-07T20:17:19.894Z,13.63
2023-04-07T20:19:47.872Z,14.55
2023-04-07T20:22:14.608Z,12.82
2023-04-07T20:24:41.401Z,14.57
2023-04-07T20:27:08.163Z,15.63
2023-04-07T20:29:34.929Z,14.60
2023-04-07T20:32:01.689Z,13.00
2023-04-07T20:34:28.406Z,14.43
2023-04-07T20:36:55.777Z,15.35
2023-04-07T20:39:22.687Z,13.80
2023-04-07T20:41:49.440Z,15.27
2023-04-07T20:44:16.168Z,14.82
2023-04-07T20:46:45.235Z,14.55
2023-04-07T20:49:11.962Z,14.85
2023-04-07T20:51:38.709Z,15.60
2023-04-07T20:54:05.420Z,16.02
2023-04-07T20:56:32.195Z,15.88
2023-04-07T20:58:59.088Z,15.25
2023-04-07T21:01:25.992Z,15.65
2023-04-07T21:03:53.863Z,15.15
2023-04-07T21:06:21.167Z,16.80
2023-04-07T21:08:48.025Z,17.98
2023-04-07T21:11:15.088Z,16.52
2023-04-07T21:13:41.798Z,18.30
2023-04-07T21:16:08.676Z,19.33
2023-04-07T21:18:35.761Z,18.58
2023-04-07T21:21:02.979Z,19.50
2023-04-07T21:23:31.651Z,19.25
2023-04-07T21:26:02.286Z,19.67
2023-04-07T21:28:29.053Z,21.73
2023-04-07T21:30:56.705Z,18.90
2023-04-07T21:33:23.840Z,18.95
2023-04-07T21:35:51.214Z,20.95
2023-04-07T21:38:18.033Z,24.15
2023-04-07T21:40:44.955Z,28.33
2023-04-07T21:43:12.286Z,23.50
2023-04-07T21:45:39.052Z,33.53
2023-04-07T21:48:06.471Z,44.72
2023-04-07T21:50:33.344Z,51.38
2023-04-07T21:53:00.320Z,44.92
2023-04-07T21:55:27.233Z,30.23
2023-04-07T21:57:54.255Z,25.10
2023-04-07T22:00:21.890Z,38.33
2023-04-07T22:02:49.610Z,64.22
2023-04-07T22:05:16.762Z,27.52
2023-04-07T22:07:45.578Z,32.90
2023-04-07T22:10:12.705Z,26.02
2023-04-07T22:12:39.546Z,28.85
2023-04-07T22:15:07.087Z,32.65
2023-04-07T22:17:34.000Z,60.45
2023-04-07T22:20:00.703Z,37.80
2023-04-07T22:22:27.421Z,29.85
2023-04-07T22:24:54.070Z,25.13
2023-04-07T22:27:20.878Z,32.05
2023-04-07T22:29:48.546Z,27.30
2023-04-07T22:32:15.520Z,38.22
2023-04-07T22:34:42.243Z,30.23
2023-04-07T22:37:09.271Z,49.80
2023-04-07T22:39:36.606Z,27.45
2023-04-07T22:42:03.368Z,26.35
2023-04-07T22:44:30.267Z,30.08
2023-04-07T22:46:57.263Z,25.80
2023-04-07T22:49:24.059Z,37.90
2023-04-07T22:51:50.891Z,27.83
2023-04-07T22:54:18.011Z,28.50
2023-04-07T22:56:45.237Z,33.40
2023-04-07T22:59:12.220Z,32.03
2023-04-07T23:01:39.008Z,29.83
2023-04-07T23:04:05.939Z,26.50
2023-04-07T23:06:33.404Z,27.10
2023-04-07T23:09:00.392Z,26.60
2023-04-07T23:11:27.380Z,26.33
2023-04-07T23:13:54.114Z,29.63
2023-04-07T23:16:20.919Z,32.38
2023-04-07T23:18:48.119Z,26.50
2023-04-07T23:21:14.941Z,26.25
2023-04-07T23:23:41.619Z,27.70
2023-04-07T23:26:08.316Z,24.55
2023-04-07T23:28:35.332Z,26.85
2023-04-07T23:31:02.185Z,25.63
2023-04-07T23:33:31.423Z,26.35
2023-04-07T23:35:58.574Z,24.30
2023-04-07T23:38:25.910Z,24.00
2023-04-07T23:40:53.161Z,22.60
2023-04-07T23:43:20.042Z,22.52
2023-04-07T23:45:46.820Z,25.60
2023-04-07T23:48:13.663Z,21.85
2023-04-07T23:50:40.632Z,22.50
2023-04-07T23:53:07.508Z,21.38
2023-04-07T23:55:34.230Z,22.95
2023-04-07T23:58:01.142Z,23.67
